createdAt,value
2023-05-25T00:01:10.618Z,101584.91
2023-05-25T00:03:40.488Z,101583.16
2023-05-25T00:06:07.389Z,101587.53
2023-05-25T00:08:34.036Z,101587.56
2023-05-25T00:11:00.866Z,101586.69
2023-05-25T00:13:27.589Z,101584.94
2023-05-25T00:15:54.358Z,101577.88
2023-05-25T00:18:22.187Z,101587.56
2023-05-25T00:20:48.889Z,101586.69
2023-05-25T00:23:15.561Z,101577.91
2023-05-25T00:25:42.756Z,101584.94
2023-05-25T00:28:11.448Z,101588.47
2023-05-25T00:30:38.209Z,101581.44
2023-05-25T00:33:05.354Z,101584.06
2023-05-25T00:35:32.102Z,101581.41
2023-05-25T00:37:58.775Z,101578.78
2023-05-25T00:40:25.456Z,101574.41
2023-05-25T00:42:52.702Z,101574.38
2023-05-25T01:57:58.043Z,101588.63
2023-05-25T02:00:31.427Z,101593.88
2023-05-25T02:02:58.540Z,101580.72
2023-05-25T02:05:25.604Z,101583.41
2023-05-25T02:07:52.618Z,101594.75
2023-05-25T02:10:19.578Z,101592.94
2023-05-25T02:12:46.890Z,101597.28
2023-05-25T02:15:15.020Z,101587.59
2023-05-25T02:17:41.778Z,101589.34
2023-05-25T02:20:10.129Z,101592.75
2023-05-25T02:22:37.928Z,101603.28
2023-05-25T02:25:05.815Z,101597.97
2023-05-25T02:27:32.656Z,101607.59
2023-05-25T02:29:59.340Z,101596.06
2023-05-25T02:32:26.083Z,101595.97
2023-05-25T02:34:52.780Z,101596.84
2023-05-25T02:37:19.532Z,101600.41
2023-05-25T02:39:48.439Z,101602.16
2023-05-25T02:42:15.095Z,101590.66
2023-05-25T02:44:42.855Z,101593.25
2023-05-25T02:47:09.576Z,101590.53
2023-05-25T02:49:36.334Z,101588.81
2023-05-25T02:52:03.274Z,101587.94
2023-05-25T02:54:30.034Z,101590.44
2023-05-25T02:56:59.026Z,101585.31
2023-05-25T02:59:25.840Z,101586.16
2023-05-25T03:01:52.692Z,101588.63
2023-05-25T03:04:19.466Z,101594.72
2023-05-25T03:06:46.290Z,101600.94
2023-05-25T03:09:13.250Z,101598.22
2023-05-25T03:11:39.907Z,101603.47
2023-05-25T03:14:06.645Z,101599.22
2023-05-25T03:16:36.472Z,101610.56
2023-05-25T03:19:05.456Z,101613.13
2023-05-25T03:21:33.148Z,101619.00
2023-05-25T03:24:00.003Z,101609.44
2023-05-25T03:26:26.816Z,101612.13
2023-05-25T03:28:53.457Z,101612.16
2023-05-25T03:31:20.139Z,101624.47
2023-05-25T03:33:46.774Z,101622.69
2023-05-25T03:36:13.751Z,101616.59
2023-05-25T03:38:42.460Z,101620.13
2023-05-25T03:41:09.131Z,101624.56
2023-05-25T03:43:35.781Z,101621.94
2023-05-25T03:46:02.462Z,101622.69
2023-05-25T03:48:29.209Z,101626.31
2023-05-25T03:50:55.912Z,101632.47
2023-05-25T03:53:22.649Z,101638.59
2023-05-25T03:55:52.224Z,101628.94
2023-05-25T03:58:19.214Z,101631.56
2023-05-25T04:00:46.085Z,101631.59
2023-05-25T04:03:12.908Z,101632.53
2023-05-25T04:05:39.673Z,101639.56
2023-05-25T04:08:08.542Z,101639.44
2023-05-25T04:10:35.366Z,101646.59
2023-05-25T04:13:02.103Z,101644.81
2023-05-25T04:15:28.822Z,101652.78
2023-05-25T04:17:55.490Z,101652.84
2023-05-25T04:20:36.415Z,101652.78
2023-05-25T04:23:03.607Z,101647.59
2023-05-25T04:25:32.176Z,101642.44
2023-05-25T04:27:59.080Z,101655.59
2023-05-25T04:30:25.745Z,101652.97
2023-05-25T04:32:52.408Z,101644.31
2023-05-25T04:35:20.954Z,101650.56
2023-05-25T04:37:48.438Z,101649.81
2023-05-25T04:40:15.199Z,101654.16
2023-05-25T04:42:41.954Z,101639.22
2023-05-25T04:45:10.472Z,101642.81
2023-05-25T04:47:37.751Z,101644.56
2023-05-25T04:50:04.637Z,101646.38
2023-05-25T04:52:32.538Z,101647.38
2023-05-25T04:54:59.335Z,101643.13
2023-05-25T04:57:28.047Z,101644.03
2023-05-25T04:59:54.949Z,101645.84
2023-05-25T05:02:21.674Z,101643.31
2023-05-25T05:04:48.400Z,101646.13
2023-05-25T05:07:15.072Z,101632.38
2023-05-25T05:09:41.760Z,101633.25
2023-05-25T05:12:11.335Z,101639.44
2023-05-25T05:14:38.696Z,101637.69
2023-05-25T05:17:05.593Z,101637.66
2023-05-25T05:19:33.298Z,101639.44
2023-05-25T05:22:00.176Z,101648.22
2023-05-25T05:24:27.259Z,101650.00
2023-05-25T05:26:58.501Z,101651.66
2023-05-25T05:29:27.002Z,101639.03
2023-05-25T05:31:55.221Z,101653.59
2023-05-25T05:34:21.986Z,101655.38
2023-05-25T05:36:57.243Z,101650.88
2023-05-25T05:39:24.420Z,101652.47
2023-05-25T05:41:51.312Z,101644.84
2023-05-25T05:44:18.774Z,101646.47
2023-05-25T05:46:46.218Z,101645.56
2023-05-25T05:49:12.949Z,101650.34
2023-05-25T05:51:39.612Z,101642.94
2023-05-25T05:54:06.344Z,101646.00
2023-05-25T05:56:33.000Z,101656.47
2023-05-25T05:58:59.742Z,101648.13
2023-05-25T06:01:26.366Z,101645.94
2023-05-25T06:03:54.479Z,101653.69
2023-05-25T06:06:21.697Z,101657.72
2023-05-25T06:08:48.387Z,101656.34
2023-05-25T06:11:15.156Z,101658.47
2023-05-25T06:13:41.814Z,101666.09
2023-05-25T06:16:08.532Z,101663.44
2023-05-25T06:18:35.238Z,101669.75
2023-05-25T06:21:02.326Z,101664.31
2023-05-25T06:23:29.071Z,101657.88
2023-05-25T06:25:55.902Z,101661.31
2023-05-25T06:28:22.578Z,101660.78
2023-05-25T06:30:49.259Z,101667.84
2023-05-25T06:33:15.932Z,101671.47
2023-05-25T06:35:42.852Z,101672.34
2023-05-25T06:38:11.239Z,101670.97
2023-05-25T06:40:38.048Z,101672.47
2023-05-25T06:43:04.675Z,101665.38
2023-05-25T06:45:31.441Z,101665.41
2023-05-25T06:47:58.129Z,101669.06
2023-05-25T06:50:24.782Z,101660.72
2023-05-25T06:52:51.575Z,101670.50
2023-05-25T06:55:18.285Z,101664.84
2023-05-25T06:57:44.936Z,101664.88
2023-05-25T07:00:12.327Z,101657.09
2023-05-25T07:02:39.577Z,101652.28
2023-05-25T07:05:06.499Z,101651.84
2023-05-25T07:07:33.577Z,101656.44
2023-05-25T07:10:02.200Z,101661.44
2023-05-25T07:12:29.014Z,101654.03
2023-05-25T07:14:55.730Z,101654.44
2023-05-25T07:17:22.439Z,101656.09
2023-05-25T07:19:50.105Z,101657.28
2023-05-25T07:22:18.984Z,101656.75
2023-05-25T07:24:46.914Z,101658.56
2023-05-25T07:27:16.771Z,101659.88
2023-05-25T07:29:43.478Z,101666.28
2023-05-25T07:32:10.149Z,101669.66
2023-05-25T07:34:36.852Z,101667.16
2023-05-25T07:37:03.678Z,101665.34
2023-05-25T07:39:30.301Z,101669.25
2023-05-25T07:41:56.969Z,101670.28
2023-05-25T07:44:23.622Z,101673.75
2023-05-25T07:46:50.293Z,101676.00
2023-05-25T07:49:17.066Z,101682.94
2023-05-25T07:51:44.986Z,101677.16
2023-05-25T07:54:11.868Z,101675.75
2023-05-25T07:56:39.049Z,101684.69
2023-05-25T07:59:06.227Z,101675.75
2023-05-25T08:01:32.982Z,101687.53
2023-05-25T08:03:59.974Z,101686.34
2023-05-25T08:06:27.187Z,101696.38
2023-05-25T08:08:53.992Z,101682.03
2023-05-25T08:11:25.103Z,101696.03
2023-05-25T08:13:51.865Z,101694.53
2023-05-25T08:16:19.158Z,101694.47
2023-05-25T08:18:47.060Z,101695.63
2023-05-25T08:21:14.194Z,101690.41
2023-05-25T08:23:42.637Z,101699.06
2023-05-25T08:26:26.108Z,101690.91
2023-05-25T08:28:57.248Z,101694.09
2023-05-25T08:31:24.048Z,101694.63
2023-05-25T08:33:50.823Z,101689.91
2023-05-25T08:36:17.920Z,101683.91
2023-05-25T08:38:44.681Z,101688.41
2023-05-25T08:41:12.204Z,101691.75
2023-05-25T08:43:38.900Z,101696.44
2023-05-25T08:46:07.512Z,101696.69
2023-05-25T08:48:41.100Z,101700.59
2023-05-25T08:51:11.483Z,101690.06
2023-05-25T08:53:40.674Z,101699.75
2023-05-25T08:56:19.933Z,101692.00
2023-05-25T08:58:53.934Z,101708.63
2023-05-25T09:01:22.843Z,101705.47
2023-05-25T09:03:50.648Z,101717.88
2023-05-25T09:06:17.545Z,101719.31
2023-05-25T09:08:44.866Z,101719.13
2023-05-25T09:11:16.261Z,101715.50
2023-05-25T09:13:43.735Z,101719.91
2023-05-25T09:16:11.274Z,101718.69
2023-05-25T09:18:38.018Z,101720.88
2023-05-25T09:21:04.863Z,101715.75
2023-05-25T09:23:32.283Z,101711.28
2023-05-25T09:25:59.017Z,101718.19
2023-05-25T09:28:27.614Z,101713.03
2023-05-25T09:30:54.798Z,101710.63
2023-05-25T09:33:21.742Z,101700.72
2023-05-25T09:35:48.746Z,101702.88
2023-05-25T09:38:16.570Z,101703.09
2023-05-25T09:40:43.902Z,101695.56
2023-05-25T09:43:17.282Z,101702.56
2023-05-25T09:45:49.127Z,101699.47
2023-05-25T09:48:16.251Z,101698.47
2023-05-25T09:50:43.414Z,101696.22
2023-05-25T09:53:11.189Z,101697.06
2023-05-25T09:55:51.989Z,101708.38
2023-05-25T09:58:22.843Z,101709.03
2023-05-25T10:00:49.503Z,101704.28
2023-05-25T10:03:16.211Z,101700.88
2023-05-25T10:05:42.889Z,101698.81
2023-05-25T10:08:10.859Z,101703.09
2023-05-25T10:10:37.981Z,101710.75
2023-05-25T10:13:05.786Z,101714.13
2023-05-25T10:15:32.715Z,101710.16
2023-05-25T10:18:00.723Z,101705.22
2023-05-25T10:20:30.054Z,101714.31
2023-05-25T10:23:05.309Z,101709.88
2023-05-25T10:25:38.447Z,101708.28
2023-05-25T10:28:16.642Z,101710.91
2023-05-25T10:30:43.359Z,101706.41
2023-05-25T10:33:10.665Z,101703.53
2023-05-25T10:35:56.096Z,101715.44
2023-05-25T10:38:31.234Z,101706.44
2023-05-25T10:41:00.045Z,101703.28
2023-05-25T10:43:27.010Z,101715.44
2023-05-25T10:45:55.472Z,101719.34
2023-05-25T10:48:23.081Z,101716.00
2023-05-25T10:50:50.579Z,101710.28
2023-05-25T10:53:17.474Z,101699.59
2023-05-25T10:55:53.099Z,101691.38
2023-05-25T10:58:21.706Z,101694.41
2023-05-25T11:01:09.398Z,101705.03
2023-05-25T11:03:48.524Z,101705.97
2023-05-25T11:06:16.895Z,101708.50
2023-05-25T11:08:59.329Z,101701.59
2023-05-25T11:11:59.616Z,101699.28
2023-05-25T11:14:38.605Z,101711.19
2023-05-25T11:17:16.185Z,101708.00
2023-05-25T11:19:54.421Z,101706.22
2023-05-25T11:22:31.870Z,101712.81
2023-05-25T11:25:00.190Z,101711.31
2023-05-25T11:27:31.317Z,101710.97
2023-05-25T11:29:59.120Z,101713.94
2023-05-25T11:32:27.021Z,101715.47
2023-05-25T11:34:55.311Z,101715.63
2023-05-25T11:37:24.891Z,101712.06
2023-05-25T11:39:52.720Z,101717.34
2023-05-25T11:42:21.174Z,101710.31
2023-05-25T11:44:47.969Z,101707.94
2023-05-25T11:47:18.780Z,101713.13
2023-05-25T11:49:47.199Z,101704.28
2023-05-25T11:52:19.556Z,101697.41
2023-05-25T11:54:46.649Z,101702.44
2023-05-25T11:57:28.413Z,101702.91
2023-05-25T12:00:07.201Z,101707.28
2023-05-25T12:02:38.834Z,101696.81
2023-05-25T12:05:08.715Z,101695.78
2023-05-25T12:07:49.531Z,101695.78
2023-05-25T12:10:16.677Z,101698.41
2023-05-25T12:12:43.343Z,101699.91
2023-05-25T12:15:11.701Z,101694.19
2023-05-25T12:17:44.585Z,101698.97
2023-05-25T12:20:12.844Z,101699.91
2023-05-25T12:22:40.276Z,101701.72
2023-05-25T12:25:11.268Z,101705.94
2023-05-25T12:27:38.109Z,101702.50
2023-05-25T12:30:09.750Z,101703.66
2023-05-25T12:33:06.461Z,101699.28
2023-05-25T12:35:50.297Z,101692.66
2023-05-25T12:38:18.776Z,101705.28
2023-05-25T12:41:06.728Z,101695.97
2023-05-25T12:43:38.314Z,101686.69
2023-05-25T12:46:06.948Z,101692.91
2023-05-25T12:48:34.225Z,101689.00
2023-05-25T12:51:04.403Z,101696.16
2023-05-25T12:53:31.412Z,101690.53
2023-05-25T12:56:04.722Z,101686.72
2023-05-25T12:58:33.508Z,101697.09
2023-05-25T13:01:03.396Z,101691.53
2023-05-25T13:03:41.084Z,101703.66
2023-05-25T13:06:09.302Z,101698.00
2023-05-25T13:08:39.198Z,101698.78
2023-05-25T13:11:09.263Z,101705.00
2023-05-25T13:13:36.112Z,101707.28
2023-05-25T13:16:02.849Z,101700.31
2023-05-25T13:18:29.599Z,101705.34
2023-05-25T13:20:57.135Z,101701.66
2023-05-25T13:23:24.303Z,101697.97
2023-05-25T13:25:51.069Z,101703.25
2023-05-25T13:28:17.853Z,101697.38
2023-05-25T13:30:44.773Z,101697.13
2023-05-25T13:33:11.752Z,101693.28
2023-05-25T13:35:46.464Z,101689.09
2023-05-25T13:38:17.140Z,101693.53
2023-05-25T13:40:44.418Z,101691.59
2023-05-25T13:43:11.700Z,101682.53
2023-05-25T13:45:38.483Z,101676.97
2023-05-25T13:48:05.678Z,101689.16
2023-05-25T13:50:35.590Z,101694.94
2023-05-25T13:53:02.361Z,101694.19
2023-05-25T13:55:29.241Z,101694.56
2023-05-25T13:57:55.901Z,101690.56
2023-05-25T14:00:22.882Z,101686.34
2023-05-25T14:02:49.709Z,101682.16
2023-05-25T14:05:16.953Z,101688.28
2023-05-25T14:07:44.558Z,101675.69
2023-05-25T14:10:11.448Z,101680.72
2023-05-25T14:12:38.662Z,101684.53
2023-05-25T14:15:07.535Z,101677.03
2023-05-25T14:17:38.941Z,101683.88
2023-05-25T14:20:12.996Z,101680.09
2023-05-25T14:22:42.048Z,101688.38
2023-05-25T14:25:09.113Z,101690.81
2023-05-25T14:27:35.794Z,101679.72
2023-05-25T14:30:02.433Z,101689.47
2023-05-25T14:32:29.206Z,101687.94
2023-05-25T14:34:55.853Z,101683.09
2023-05-25T14:37:22.523Z,101676.06
2023-05-25T14:39:49.310Z,101678.84
2023-05-25T14:42:17.020Z,101680.50
2023-05-25T14:44:47.687Z,101678.28
2023-05-25T14:47:17.807Z,101679.31
2023-05-25T14:49:44.932Z,101673.28
2023-05-25T14:52:11.674Z,101673.22
2023-05-25T14:54:44.318Z,101670.25
2023-05-25T14:57:12.144Z,101663.81
2023-05-25T14:59:39.801Z,101676.97
2023-05-25T15:02:07.406Z,101674.81
2023-05-25T15:04:34.652Z,101673.53
2023-05-25T15:07:01.496Z,101672.91
2023-05-25T15:09:28.253Z,101664.75
2023-05-25T15:11:55.096Z,101675.66
2023-05-25T15:14:21.993Z,101673.56
2023-05-25T15:16:48.770Z,101671.88
2023-05-25T15:19:17.574Z,101669.94
2023-05-25T15:21:44.718Z,101666.25
2023-05-25T15:24:13.830Z,101661.28
2023-05-25T15:26:40.537Z,101665.47
2023-05-25T15:29:07.513Z,101666.78
2023-05-25T15:31:34.239Z,101664.28
2023-05-25T15:34:00.986Z,101659.53
2023-05-25T15:36:27.713Z,101659.22
2023-05-25T15:38:54.350Z,101659.31
2023-05-25T15:41:21.092Z,101657.66
2023-05-25T15:44:01.507Z,101649.44
2023-05-25T15:46:28.491Z,101645.31
2023-05-25T15:48:56.494Z,101647.13
2023-05-25T15:51:25.519Z,101641.56
2023-05-25T15:53:52.476Z,101645.97
2023-05-25T15:56:19.183Z,101649.72
2023-05-25T15:58:51.664Z,101653.78
2023-05-25T16:01:25.807Z,101661.69
2023-05-25T16:03:52.887Z,101654.16
2023-05-25T16:06:23.856Z,101640.84
2023-05-25T16:08:50.561Z,101660.09
2023-05-25T16:11:17.275Z,101652.41
2023-05-25T16:13:43.957Z,101647.09
2023-05-25T16:16:10.673Z,101663.44
2023-05-25T16:18:37.625Z,101657.78
2023-05-25T16:21:04.929Z,101654.09
2023-05-25T16:23:31.701Z,101657.34
2023-05-25T16:25:58.497Z,101658.38
2023-05-25T16:28:25.246Z,101656.38
2023-05-25T16:30:55.943Z,101657.03
2023-05-25T16:33:22.894Z,101661.00
2023-05-25T16:35:49.657Z,101656.50
2023-05-25T16:38:19.373Z,101659.50
2023-05-25T16:40:48.933Z,101663.38
2023-05-25T16:43:16.238Z,101656.22
2023-05-25T16:45:50.698Z,101661.13
2023-05-25T16:48:17.541Z,101658.31
2023-05-25T16:50:44.218Z,101653.31
2023-05-25T16:53:11.034Z,101658.75
2023-05-25T16:55:37.889Z,101655.03
2023-05-25T16:58:05.124Z,101653.97
2023-05-25T17:00:31.837Z,101657.09
2023-05-25T17:02:58.746Z,101659.72
2023-05-25T17:05:25.742Z,101659.13
2023-05-25T17:07:52.702Z,101648.97
2023-05-25T17:10:19.548Z,101648.63
2023-05-25T17:12:46.380Z,101649.25
2023-05-25T17:15:16.023Z,101649.25
2023-05-25T17:17:43.455Z,101650.31
2023-05-25T17:20:11.457Z,101650.47
2023-05-25T17:22:38.327Z,101651.94
2023-05-25T17:25:06.235Z,101647.44
2023-05-25T17:27:32.969Z,101647.84
2023-05-25T17:30:00.181Z,101649.16
2023-05-25T17:32:27.171Z,101648.84
2023-05-25T17:34:53.950Z,101649.78
2023-05-25T17:37:21.366Z,101649.72
2023-05-25T17:39:48.457Z,101648.31
2023-05-25T17:42:16.720Z,101646.88
2023-05-25T17:44:44.301Z,101649.19
2023-05-25T17:47:11.450Z,101651.16
2023-05-25T17:49:39.834Z,101650.53
2023-05-25T17:52:08.220Z,101657.06
2023-05-25T17:54:38.954Z,101667.94
2023-05-25T17:57:06.693Z,101662.34
2023-05-25T17:59:45.502Z,101669.34
2023-05-25T18:02:12.888Z,101671.16
2023-05-25T18:04:39.800Z,101674.81
2023-05-25T18:07:06.565Z,101683.16
2023-05-25T18:09:41.582Z,101684.75
2023-05-25T18:12:10.615Z,101690.16
2023-05-25T18:14:37.885Z,101686.03
2023-05-25T18:17:05.021Z,101683.34
2023-05-25T18:19:32.014Z,101700.53
2023-05-25T18:21:59.122Z,101692.88
2023-05-25T18:24:26.795Z,101697.06
2023-05-25T18:26:53.780Z,101700.97
2023-05-25T18:29:20.504Z,101699.88
2023-05-25T18:31:48.886Z,101701.25
2023-05-25T18:34:16.120Z,101699.84
2023-05-25T18:36:42.841Z,101701.19
2023-05-25T18:39:09.848Z,101703.84
2023-05-25T18:41:36.538Z,101702.59
2023-05-25T18:44:07.714Z,101702.59
2023-05-25T18:46:34.495Z,101710.94
2023-05-25T18:49:01.173Z,101709.44
2023-05-25T18:51:27.877Z,101707.38
2023-05-25T18:53:54.817Z,101708.53
2023-05-25T18:56:21.514Z,101715.28
2023-05-25T18:58:48.948Z,101715.38
2023-05-25T19:01:17.539Z,101718.22
2023-05-25T19:03:44.405Z,101713.16
2023-05-25T19:06:11.546Z,101716.09
2023-05-25T19:08:41.164Z,101717.19
2023-05-25T19:11:07.824Z,101723.75
2023-05-25T19:13:34.507Z,101728.44
2023-05-25T19:16:03.304Z,101723.44
2023-05-25T19:18:30.068Z,101727.97
2023-05-25T19:20:58.285Z,101726.41
2023-05-25T19:23:25.094Z,101728.38
2023-05-25T19:25:51.765Z,101729.53
2023-05-25T19:28:18.491Z,101734.00
2023-05-25T19:30:45.795Z,101736.06
2023-05-25T19:33:12.555Z,101734.47
2023-05-25T19:35:41.447Z,101732.84
2023-05-25T19:38:08.200Z,101733.94
2023-05-25T19:40:35.035Z,101741.97
2023-05-25T19:43:01.812Z,101748.34
2023-05-25T19:45:28.572Z,101754.81
2023-05-25T19:47:55.387Z,101754.78
2023-05-25T19:50:22.107Z,101744.28
2023-05-25T19:52:48.882Z,101748.72
2023-05-25T19:55:15.572Z,101744.38
2023-05-25T19:57:42.221Z,101748.91
2023-05-25T20:00:17.576Z,101749.78
2023-05-25T20:02:52.677Z,101751.75
2023-05-25T20:05:22.802Z,101746.41
2023-05-25T20:07:52.107Z,101752.69
2023-05-25T20:10:21.521Z,101756.41
2023-05-25T20:12:48.223Z,101748.50
2023-05-25T20:15:15.060Z,101753.00
2023-05-25T20:17:41.775Z,101756.41
2023-05-25T20:20:08.631Z,101754.66
2023-05-25T20:22:35.460Z,101756.56
2023-05-25T20:25:02.167Z,101754.00
2023-05-25T20:27:28.846Z,101764.53
2023-05-25T20:29:55.679Z,101769.06
2023-05-25T20:32:22.523Z,101763.75
2023-05-25T20:34:49.207Z,101770.06
2023-05-25T20:37:17.106Z,101784.19
2023-05-25T20:39:43.876Z,101779.78
2023-05-25T20:42:11.708Z,101790.44
2023-05-25T20:44:38.373Z,101778.13
2023-05-25T20:47:05.464Z,101779.91
2023-05-25T20:49:32.140Z,101785.25
2023-05-25T20:51:59.583Z,101789.69
2023-05-25T20:54:26.648Z,101786.16
2023-05-25T20:56:53.535Z,101784.44
2023-05-25T20:59:20.497Z,101787.06
2023-05-25T21:01:47.641Z,101783.53
2023-05-25T21:04:14.675Z,101790.63
2023-05-25T21:06:41.770Z,101788.91
2023-05-25T21:09:08.717Z,101787.13
2023-05-25T21:11:35.387Z,101793.31
2023-05-25T21:14:02.193Z,101793.38
2023-05-25T21:16:28.893Z,101793.38
2023-05-25T21:18:55.634Z,101799.53
2023-05-25T21:21:22.310Z,101799.53
2023-05-25T21:23:49.042Z,101800.41
2023-05-25T21:26:15.873Z,101802.16
2023-05-25T21:28:42.558Z,101803.94
2023-05-25T21:31:09.208Z,101795.13
2023-05-25T21:33:37.550Z,101798.66
2023-05-25T21:36:04.248Z,101803.91
2023-05-25T21:38:30.939Z,101805.69
2023-05-25T21:40:58.700Z,101804.78
2023-05-25T21:43:27.028Z,101807.44
2023-05-25T21:45:53.724Z,101819.75
2023-05-25T21:48:21.150Z,101815.38
2023-05-25T21:50:50.424Z,101826.78
2023-05-25T21:53:17.200Z,101824.16
2023-05-25T21:55:44.718Z,101822.38
2023-05-25T21:58:12.637Z,101820.59
2023-05-25T22:00:39.381Z,101831.16
2023-05-25T22:03:06.277Z,101833.78
2023-05-25T22:05:34.695Z,101835.53
2023-05-25T22:08:02.349Z,101829.34
2023-05-25T22:10:29.000Z,101833.69
2023-05-25T22:12:56.256Z,101825.81
2023-05-25T22:15:23.475Z,101833.69
2023-05-25T22:17:50.510Z,101834.53
2023-05-25T22:20:18.289Z,101834.53
2023-05-25T22:22:45.651Z,101838.06
2023-05-25T22:25:12.395Z,101840.69
2023-05-25T22:27:39.177Z,101837.16
2023-05-25T22:30:06.929Z,101831.88
2023-05-25T22:32:33.727Z,101829.25
2023-05-25T22:35:01.136Z,101833.56
2023-05-25T22:37:27.802Z,101838.78
2023-05-25T22:39:54.434Z,101831.75
2023-05-25T22:42:21.683Z,101837.84
2023-05-25T22:44:49.411Z,101834.28
2023-05-25T22:47:16.081Z,101836.94
2023-05-25T22:49:44.440Z,101837.81
2023-05-25T22:52:11.294Z,101838.69
2023-05-25T22:54:38.017Z,101836.06
2023-05-25T22:57:05.681Z,101842.19
2023-05-25T22:59:32.491Z,101843.91
2023-05-25T23:01:59.217Z,101831.56
2023-05-25T23:04:26.009Z,101839.41
2023-05-25T23:06:52.707Z,101838.47
2023-05-25T23:09:20.976Z,101835.75
2023-05-25T23:11:47.730Z,101837.50
2023-05-25T23:14:14.413Z,101835.66
2023-05-25T23:16:41.659Z,101832.09
2023-05-25T23:19:08.573Z,101840.88
2023-05-25T23:21:35.303Z,101834.66
2023-05-25T23:24:02.046Z,101838.22
2023-05-25T23:26:29.951Z,101838.16
2023-05-25T23:28:56.653Z,101831.06
2023-05-25T23:31:23.436Z,101839.84
2023-05-25T23:33:50.206Z,101836.31
2023-05-25T23:36:16.986Z,101838.06
2023-05-25T23:38:43.750Z,101836.25
2023-05-25T23:41:10.559Z,101833.47
2023-05-25T23:43:37.188Z,101834.34
2023-05-25T23:46:03.932Z,101841.25
2023-05-25T23:48:30.831Z,101828.03
2023-05-25T23:50:57.474Z,101832.31
2023-05-25T23:53:24.189Z,101833.13
2023-05-25T23:55:50.837Z,101833.09
2023-05-25T23:58:17.496Z,101840.97
